Agios Nikolas — SVAV5 — position and weather

sailwx.info

Track history (hours):
 
Tides and Currents Weather Stations Pressure Air Temp Water Temp Dewpoint Dewpoint Depression Visibility Wind Speed Wind Dir Waves Ship Positions

Agios Nikolas

Last reported at 2016-Aug-01 22:32 UTC. Time now 2016-Aug-29 07:10 UTC.
Position S 25°44' W 043°13'.
Warning: this ship's position is 27 days out of date.

Length 225 m; draft 12.2 m.

Type: Cargo ship. MMSI: 240963000.

Date/timePositionNaut miles runAvg speedWind from/ knotsBaromVisibWave heightAir tempDewpointWater temp
2016-Aug-01 22:32S 25°44' W 043°13'9511.8
2016-Aug-01 14:32S 25°05' W 044°48'1211.9
2016-Aug-01 13:33S 25°00' W 044°60'6911.5
2016-Aug-01 07:33S 24°27' W 046°06'2210.8
2016-Aug-01 05:34S 24°10' W 046°22'9 8.6
2016-Aug-01 04:33S 24°02' W 046°21'4 3.9
2016-Aug-01 03:28S 23°59' W 046°17'0 0.0
2016-Aug-01 02:28S 23°59' W 046°17'0 0.0
2016-Jul-31 17:28S 23°59' W 046°17'0 0.0
2016-Jul-31 16:28S 23°59' W 046°17'0 0.0
2016-Jul-31 15:28S 23°59' W 046°17'0 0.0
2016-Jul-31 14:28S 23°59' W 046°17'0 0.0
2016-Jul-31 13:28S 23°59' W 046°17'0 0.0
2016-Jul-31 00:22S 23°59' W 046°17'0 0.0
2016-Jul-30 22:28S 23°59' W 046°17'0 0.0
2016-Jul-30 19:22S 23°59' W 046°17'0 0.0
2016-Jul-30 18:28S 23°59' W 046°17'0 0.0
2016-Jul-30 17:28S 23°59' W 046°17'0 0.0
2016-Jul-30 16:28S 23°59' W 046°17'0 0.0
2016-Jul-30 15:31S 23°59' W 046°17'0 0.0
2016-Jul-30 14:31S 23°59' W 046°17'0 0.0
2016-Jul-30 13:28S 23°59' W 046°17'0 0.0
2016-Jul-30 12:28S 23°59' W 046°17'0 0.0
2016-Jul-30 11:28S 23°59' W 046°17'0 0.0
2016-Jul-30 10:28S 23°59' W 046°17'0 0.0
2016-Jul-30 09:31S 23°59' W 046°17'0 0.0
2016-Jul-30 08:31S 23°59' W 046°17'0 0.0
2016-Jul-30 07:28S 23°59' W 046°17'0 0.0
2016-Jul-30 06:28S 23°59' W 046°17'0 0.0
2016-Jul-30 05:31S 23°59' W 046°17'0 0.0
2016-Jul-30 04:28S 23°59' W 046°17'0 0.0
2016-Jul-30 02:28S 23°59' W 046°17'0 0.0
2016-Jul-30 01:28S 23°59' W 046°17'0 0.0
2016-Jul-30 00:28S 23°59' W 046°17'0 0.0
2016-Jul-29 23:28S 23°59' W 046°17'0 0.0
2016-Jul-29 22:28S 23°59' W 046°17'0 0.0
2016-Jul-29 21:28S 23°59' W 046°17'0 0.0
2016-Jul-29 20:31S 23°59' W 046°17'0 0.0
2016-Jul-29 19:33S 23°59' W 046°17'5 5.4
2016-Jul-29 18:33S 24°03' W 046°21'7 7.2
2016-Jul-29 17:33S 24°09' W 046°16'3 2.4
2016-Jul-29 16:27S 24°10' W 046°13'0 0.0
2016-Jul-29 14:21S 24°10' W 046°13'0 0.0
2016-Jul-29 13:21S 24°10' W 046°13'0 0.0
2016-Jul-29 12:24S 24°10' W 046°13'0 0.0
2016-Jul-29 11:15S 24°09' W 046°13'0 0.0
2016-Jul-29 10:21S 24°10' W 046°13'0 0.2
2016-Jul-29 09:33S 24°09' W 046°13'0 0.0
2016-Jul-29 08:27S 24°09' W 046°13'0 0.0
2016-Jul-29 07:33S 24°09' W 046°13'0 0.0
2016-Jul-29 06:33S 24°09' W 046°13'0 0.0
2016-Jul-29 05:33S 24°09' W 046°13'0 0.0
2016-Jul-29 04:33S 24°09' W 046°13'0 0.0
2016-Jul-29 03:33S 24°09' W 046°13'0 0.0
2016-Jul-29 02:33S 24°09' W 046°13'0 0.0
2016-Jul-29 01:33S 24°09' W 046°13'0 0.0
2016-Jul-29 00:33S 24°09' W 046°13'0 0.0
2016-Jul-28 23:33S 24°09' W 046°13'0 0.0
2016-Jul-28 22:33S 24°09' W 046°13'0 0.0
2016-Jul-28 21:27S 24°09' W 046°13'0 0.0
2016-Jul-28 20:27S 24°09' W 046°13'0 0.0
2016-Jul-28 19:33S 24°09' W 046°13'0 0.0
2016-Jul-28 18:33S 24°09' W 046°13'0 0.0
2016-Jul-28 17:33S 24°09' W 046°13'0 0.0
2016-Jul-28 16:33S 24°09' W 046°13'0 0.0
2016-Jul-28 15:27S 24°09' W 046°13'0 0.0
2016-Jul-28 14:32S 24°09' W 046°13'0 0.0
2016-Jul-28 13:32S 24°09' W 046°13'0 0.0
2016-Jul-28 12:26S 24°09' W 046°13'0 0.0
2016-Jul-28 11:29S 24°09' W 046°13'0 0.0
2016-Jul-28 10:29S 24°09' W 046°13'0 0.0
2016-Jul-28 09:32S 24°09' W 046°13'0 0.0
2016-Jul-28 08:20S 24°09' W 046°13'0 0.1
2016-Jul-28 07:32S 24°09' W 046°13'0 0.0
2016-Jul-28 06:23S 24°09' W 046°13'0 0.0
2016-Jul-28 05:32S 24°09' W 046°13'0 0.0
2016-Jul-28 04:29S 24°09' W 046°13'0 0.0
2016-Jul-28 03:32S 24°09' W 046°13'0 0.0
2016-Jul-28 02:32S 24°09' W 046°13'0 0.0
2016-Jul-28 01:26S 24°09' W 046°13'0 0.0
2016-Jul-28 00:26S 24°09' W 046°13'0 0.0
2016-Jul-27 23:32S 24°09' W 046°13'0 0.0
2016-Jul-27 22:32S 24°09' W 046°13'0 0.0
2016-Jul-27 21:32S 24°09' W 046°13'0 0.0
2016-Jul-27 20:32S 24°09' W 046°13'0 0.0
2016-Jul-27 19:26S 24°09' W 046°13'0 0.0
2016-Jul-27 18:32S 24°09' W 046°13'0 0.0
2016-Jul-27 17:14S 24°09' W 046°13'0 0.0
2016-Jul-27 16:26S 24°09' W 046°13'0 0.0
2016-Jul-27 15:26S 24°09' W 046°13'0 0.1
2016-Jul-27 14:32S 24°10' W 046°13'0 0.0
2016-Jul-27 13:32S 24°10' W 046°13'0 0.0
2016-Jul-27 12:26S 24°10' W 046°13'0 0.0
2016-Jul-27 11:32S 24°10' W 046°13'0 0.0
2016-Jul-27 08:32S 24°10' W 046°13'0 0.0
2016-Jul-27 07:32S 24°10' W 046°13'0 0.0
2016-Jul-27 06:32S 24°10' W 046°13'0 0.0
2016-Jul-27 05:32S 24°10' W 046°13'0 0.0
2016-Jul-27 04:26S 24°10' W 046°13'0 0.0
2016-Jul-27 03:32S 24°10' W 046°13'0 0.0
2016-Jul-27 02:32S 24°10' W 046°13'0 0.0
2016-Jul-27 01:32S 24°10' W 046°13'0 0.0
2016-Jul-27 00:32S 24°10' W 046°13'0 0.0
2016-Jul-26 23:29S 24°10' W 046°13'0 0.0
2016-Jul-26 22:26S 24°10' W 046°13'0 0.0
2016-Jul-26 21:32S 24°10' W 046°13'0 0.0
2016-Jul-26 20:32S 24°10' W 046°13'0 0.0
2016-Jul-26 19:32S 24°10' W 046°13'0 0.0
2016-Jul-26 18:32S 24°10' W 046°13'0 0.0
2016-Jul-26 17:32S 24°10' W 046°13'0 0.0
2016-Jul-26 16:32S 24°10' W 046°13'0 0.0
2016-Jul-26 15:29S 24°10' W 046°13'0 0.0
2016-Jul-26 14:26S 24°10' W 046°13'0 0.0
2016-Jul-26 13:32S 24°10' W 046°13'0 0.0
2016-Jul-26 12:23S 24°10' W 046°13'0 0.0
2016-Jul-26 11:32S 24°10' W 046°13'0 0.0
2016-Jul-26 10:32S 24°10' W 046°13'0 0.0
2016-Jul-26 08:32S 24°10' W 046°13'0 0.0
2016-Jul-26 07:29S 24°10' W 046°13'0 0.0
2016-Jul-26 06:32S 24°10' W 046°13'0 0.0
2016-Jul-26 05:29S 24°10' W 046°13'0 0.0
2016-Jul-26 04:26S 24°10' W 046°13'0 0.0
2016-Jul-26 03:17S 24°10' W 046°13'0 0.0
2016-Jul-26 02:26S 24°10' W 046°13'0 0.0
2016-Jul-26 01:32S 24°10' W 046°13'0 0.0
2016-Jul-26 00:29S 24°10' W 046°13'0 0.0
2016-Jul-25 23:32S 24°10' W 046°13'0 0.0
2016-Jul-25 22:32S 24°10' W 046°13'0 0.0
2016-Jul-25 21:20S 24°10' W 046°13'0 0.0
2016-Jul-25 20:32S 24°10' W 046°13'0 0.0
2016-Jul-25 19:29S 24°10' W 046°13'0 0.0
2016-Jul-25 18:29S 24°10' W 046°13'0 0.0
2016-Jul-25 17:29S 24°10' W 046°13'0 0.0
2016-Jul-25 16:32S 24°10' W 046°13'0 0.0
2016-Jul-25 15:32S 24°10' W 046°13'0 0.0
2016-Jul-25 14:32S 24°10' W 046°13'0 0.0
2016-Jul-25 13:32S 24°10' W 046°13'0 0.0
2016-Jul-25 12:32S 24°10' W 046°13'0 0.0
2016-Jul-25 11:26S 24°10' W 046°13'0 0.0
2016-Jul-25 10:26S 24°10' W 046°13'0 0.0
2016-Jul-25 09:29S 24°10' W 046°13'0 0.0
2016-Jul-25 08:32S 24°10' W 046°13'0 0.0
2016-Jul-25 07:32S 24°10' W 046°13'0 0.0
2016-Jul-25 06:26S 24°10' W 046°13'0 0.0
2016-Jul-25 05:29S 24°10' W 046°13'0 0.0
2016-Jul-25 04:26S 24°10' W 046°13'0 0.0
2016-Jul-25 03:26S 24°10' W 046°13'0 0.0
2016-Jul-25 02:17S 24°10' W 046°13'0 0.0
2016-Jul-25 01:26S 24°10' W 046°13'0 0.0
2016-Jul-25 00:32S 24°10' W 046°13'0 0.0
2016-Jul-24 23:23S 24°10' W 046°13'0 0.0
2016-Jul-24 22:32S 24°10' W 046°13'0 0.0
2016-Jul-24 21:32S 24°10' W 046°13'0 0.0
2016-Jul-24 19:26S 24°10' W 046°13'0 0.0
2016-Jul-24 18:26S 24°10' W 046°13'0 0.0
2016-Jul-24 17:32S 24°09' W 046°13'0 0.0
2016-Jul-24 16:32S 24°09' W 046°13'0 0.0
2016-Jul-24 15:32S 24°09' W 046°13'0 0.0
2016-Jul-24 14:32S 24°09' W 046°13'0 0.0
2016-Jul-24 13:32S 24°09' W 046°13'0 0.0
2016-Jul-24 12:23S 24°09' W 046°13'0 0.0
2016-Jul-24 11:32S 24°09' W 046°13'0 0.0
2016-Jul-24 10:32S 24°09' W 046°13'0 0.0
2016-Jul-24 09:32S 24°09' W 046°13'0 0.0
2016-Jul-24 08:32S 24°09' W 046°13'0 0.0
2016-Jul-24 07:32S 24°09' W 046°13'0 0.0
2016-Jul-24 06:32S 24°09' W 046°13'0 0.0
2016-Jul-24 05:32S 24°09' W 046°13'0 0.0
2016-Jul-24 04:32S 24°09' W 046°13'0 0.0
2016-Jul-24 03:32S 24°09' W 046°13'0 0.0
2016-Jul-24 02:26S 24°10' W 046°13'0 0.0
2016-Jul-24 01:32S 24°10' W 046°13'0 0.0
2016-Jul-24 00:32S 24°10' W 046°13'0 0.0
2016-Jul-23 23:32S 24°10' W 046°13'0 0.0
2016-Jul-23 22:32S 24°10' W 046°13'0 0.0
2016-Jul-23 21:29S 24°09' W 046°13'0 0.0
2016-Jul-23 20:26S 24°09' W 046°13'0 0.0
2016-Jul-23 19:32S 24°10' W 046°13'0 0.0
2016-Jul-23 18:32S 24°10' W 046°13'0 0.1
2016-Jul-23 17:32S 24°09' W 046°13'0 0.0
2016-Jul-23 16:32S 24°09' W 046°13'0 0.0
2016-Jul-23 15:26S 24°09' W 046°13'0 0.0
2016-Jul-23 14:32S 24°09' W 046°13'0 0.0
2016-Jul-23 13:32S 24°09' W 046°13'0 0.0
2016-Jul-23 12:14S 24°09' W 046°13'0 0.0
2016-Jul-23 11:29S 24°09' W 046°13'0 0.0
2016-Jul-23 10:32S 24°09' W 046°13'0 0.0
2016-Jul-23 09:20S 24°09' W 046°13'0 0.0
2016-Jul-23 08:32S 24°09' W 046°13'0 0.0
2016-Jul-23 07:32S 24°09' W 046°13'0 0.0
2016-Jul-23 06:32S 24°09' W 046°13'0 0.0
2016-Jul-23 04:26S 24°09' W 046°13'0 0.0
2016-Jul-23 03:26S 24°09' W 046°13'0 0.0
2016-Jul-23 02:26S 24°09' W 046°13'0 0.0
2016-Jul-23 01:32S 24°09' W 046°13'0 0.0
2016-Jul-23 00:32S 24°09' W 046°13'0 0.0
2016-Jul-22 23:29S 24°09' W 046°13'0 0.0
2016-Jul-22 22:32S 24°09' W 046°13'  
Track history (hours):
 
Tides and Currents Weather Stations Pressure Air Temp Water Temp Dewpoint Dewpoint Depression Visibility Wind Speed Wind Dir Waves Ship Positions

Agios Nikolas

Last reported at 2016-Aug-01 22:32 UTC. Time now 2016-Aug-29 07:10 UTC.
Position S 25°44' W 043°13'.
Warning: this ship's position is 27 days out of date.

Length 225 m; draft 12.2 m.

Type: Cargo ship. MMSI: 240963000.

Date/timePositionNaut miles runAvg speedWind from/ knotsBaromVisibWave heightAir tempDewpointWater temp
2016-Aug-01 22:32S 25°44' W 043°13'9511.8
2016-Aug-01 14:32S 25°05' W 044°48'1211.9
2016-Aug-01 13:33S 25°00' W 044°60'6911.5
2016-Aug-01 07:33S 24°27' W 046°06'2210.8
2016-Aug-01 05:34S 24°10' W 046°22'9 8.6
2016-Aug-01 04:33S 24°02' W 046°21'4 3.9
2016-Aug-01 03:28S 23°59' W 046°17'0 0.0
2016-Aug-01 02:28S 23°59' W 046°17'0 0.0
2016-Jul-31 17:28S 23°59' W 046°17'0 0.0
2016-Jul-31 16:28S 23°59' W 046°17'0 0.0
2016-Jul-31 15:28S 23°59' W 046°17'0 0.0
2016-Jul-31 14:28S 23°59' W 046°17'0 0.0
2016-Jul-31 13:28S 23°59' W 046°17'0 0.0
2016-Jul-31 00:22S 23°59' W 046°17'0 0.0
2016-Jul-30 22:28S 23°59' W 046°17'0 0.0
2016-Jul-30 19:22S 23°59' W 046°17'0 0.0
2016-Jul-30 18:28S 23°59' W 046°17'0 0.0
2016-Jul-30 17:28S 23°59' W 046°17'0 0.0
2016-Jul-30 16:28S 23°59' W 046°17'0 0.0
2016-Jul-30 15:31S 23°59' W 046°17'0 0.0
2016-Jul-30 14:31S 23°59' W 046°17'0 0.0
2016-Jul-30 13:28S 23°59' W 046°17'0 0.0
2016-Jul-30 12:28S 23°59' W 046°17'0 0.0
2016-Jul-30 11:28S 23°59' W 046°17'0 0.0
2016-Jul-30 10:28S 23°59' W 046°17'0 0.0
2016-Jul-30 09:31S 23°59' W 046°17'0 0.0
2016-Jul-30 08:31S 23°59' W 046°17'0 0.0
2016-Jul-30 07:28S 23°59' W 046°17'0 0.0
2016-Jul-30 06:28S 23°59' W 046°17'0 0.0
2016-Jul-30 05:31S 23°59' W 046°17'0 0.0
2016-Jul-30 04:28S 23°59' W 046°17'0 0.0
2016-Jul-30 02:28S 23°59' W 046°17'0 0.0
2016-Jul-30 01:28S 23°59' W 046°17'0 0.0
2016-Jul-30 00:28S 23°59' W 046°17'0 0.0
2016-Jul-29 23:28S 23°59' W 046°17'0 0.0
2016-Jul-29 22:28S 23°59' W 046°17'0 0.0
2016-Jul-29 21:28S 23°59' W 046°17'0 0.0
2016-Jul-29 20:31S 23°59' W 046°17'0 0.0
2016-Jul-29 19:33S 23°59' W 046°17'5 5.4
2016-Jul-29 18:33S 24°03' W 046°21'7 7.2
2016-Jul-29 17:33S 24°09' W 046°16'3 2.4
2016-Jul-29 16:27S 24°10' W 046°13'0 0.0
2016-Jul-29 14:21S 24°10' W 046°13'0 0.0
2016-Jul-29 13:21S 24°10' W 046°13'0 0.0
2016-Jul-29 12:24S 24°10' W 046°13'0 0.0
2016-Jul-29 11:15S 24°09' W 046°13'0 0.0
2016-Jul-29 10:21S 24°10' W 046°13'0 0.2
2016-Jul-29 09:33S 24°09' W 046°13'0 0.0
2016-Jul-29 08:27S 24°09' W 046°13'0 0.0
2016-Jul-29 07:33S 24°09' W 046°13'0 0.0
2016-Jul-29 06:33S 24°09' W 046°13'0 0.0
2016-Jul-29 05:33S 24°09' W 046°13'0 0.0
2016-Jul-29 04:33S 24°09' W 046°13'0 0.0
2016-Jul-29 03:33S 24°09' W 046°13'0 0.0
2016-Jul-29 02:33S 24°09' W 046°13'0 0.0
2016-Jul-29 01:33S 24°09' W 046°13'0 0.0
2016-Jul-29 00:33S 24°09' W 046°13'0 0.0
2016-Jul-28 23:33S 24°09' W 046°13'0 0.0
2016-Jul-28 22:33S 24°09' W 046°13'0 0.0
2016-Jul-28 21:27S 24°09' W 046°13'0 0.0
2016-Jul-28 20:27S 24°09' W 046°13'0 0.0
2016-Jul-28 19:33S 24°09' W 046°13'0 0.0
2016-Jul-28 18:33S 24°09' W 046°13'0 0.0
2016-Jul-28 17:33S 24°09' W 046°13'0 0.0
2016-Jul-28 16:33S 24°09' W 046°13'0 0.0
2016-Jul-28 15:27S 24°09' W 046°13'0 0.0
2016-Jul-28 14:32S 24°09' W 046°13'0 0.0
2016-Jul-28 13:32S 24°09' W 046°13'0 0.0
2016-Jul-28 12:26S 24°09' W 046°13'0 0.0
2016-Jul-28 11:29S 24°09' W 046°13'0 0.0
2016-Jul-28 10:29S 24°09' W 046°13'0 0.0
2016-Jul-28 09:32S 24°09' W 046°13'0 0.0
2016-Jul-28 08:20S 24°09' W 046°13'0 0.1
2016-Jul-28 07:32S 24°09' W 046°13'0 0.0
2016-Jul-28 06:23S 24°09' W 046°13'0 0.0
2016-Jul-28 05:32S 24°09' W 046°13'0 0.0
2016-Jul-28 04:29S 24°09' W 046°13'0 0.0
2016-Jul-28 03:32S 24°09' W 046°13'0 0.0
2016-Jul-28 02:32S 24°09' W 046°13'0 0.0
2016-Jul-28 01:26S 24°09' W 046°13'0 0.0
2016-Jul-28 00:26S 24°09' W 046°13'0 0.0
2016-Jul-27 23:32S 24°09' W 046°13'0 0.0
2016-Jul-27 22:32S 24°09' W 046°13'0 0.0
2016-Jul-27 21:32S 24°09' W 046°13'0 0.0
2016-Jul-27 20:32S 24°09' W 046°13'0 0.0
2016-Jul-27 19:26S 24°09' W 046°13'0 0.0
2016-Jul-27 18:32S 24°09' W 046°13'0 0.0
2016-Jul-27 17:14S 24°09' W 046°13'0 0.0
2016-Jul-27 16:26S 24°09' W 046°13'0 0.0
2016-Jul-27 15:26S 24°09' W 046°13'0 0.1
2016-Jul-27 14:32S 24°10' W 046°13'0 0.0
2016-Jul-27 13:32S 24°10' W 046°13'0 0.0
2016-Jul-27 12:26S 24°10' W 046°13'0 0.0
2016-Jul-27 11:32S 24°10' W 046°13'0 0.0
2016-Jul-27 08:32S 24°10' W 046°13'0 0.0
2016-Jul-27 07:32S 24°10' W 046°13'0 0.0
2016-Jul-27 06:32S 24°10' W 046°13'0 0.0
2016-Jul-27 05:32S 24°10' W 046°13'0 0.0
2016-Jul-27 04:26S 24°10' W 046°13'0 0.0
2016-Jul-27 03:32S 24°10' W 046°13'0 0.0
2016-Jul-27 02:32S 24°10' W 046°13'0 0.0
2016-Jul-27 01:32S 24°10' W 046°13'0 0.0
2016-Jul-27 00:32S 24°10' W 046°13'0 0.0
2016-Jul-26 23:29S 24°10' W 046°13'0 0.0
2016-Jul-26 22:26S 24°10' W 046°13'0 0.0
2016-Jul-26 21:32S 24°10' W 046°13'0 0.0
2016-Jul-26 20:32S 24°10' W 046°13'0 0.0
2016-Jul-26 19:32S 24°10' W 046°13'0 0.0
2016-Jul-26 18:32S 24°10' W 046°13'0 0.0
2016-Jul-26 17:32S 24°10' W 046°13'0 0.0
2016-Jul-26 16:32S 24°10' W 046°13'0 0.0
2016-Jul-26 15:29S 24°10' W 046°13'0 0.0
2016-Jul-26 14:26S 24°10' W 046°13'0 0.0
2016-Jul-26 13:32S 24°10' W 046°13'0 0.0
2016-Jul-26 12:23S 24°10' W 046°13'0 0.0
2016-Jul-26 11:32S 24°10' W 046°13'0 0.0
2016-Jul-26 10:32S 24°10' W 046°13'0 0.0
2016-Jul-26 08:32S 24°10' W 046°13'0 0.0
2016-Jul-26 07:29S 24°10' W 046°13'0 0.0
2016-Jul-26 06:32S 24°10' W 046°13'0 0.0
2016-Jul-26 05:29S 24°10' W 046°13'0 0.0
2016-Jul-26 04:26S 24°10' W 046°13'0 0.0
2016-Jul-26 03:17S 24°10' W 046°13'0 0.0
2016-Jul-26 02:26S 24°10' W 046°13'0 0.0
2016-Jul-26 01:32S 24°10' W 046°13'0 0.0
2016-Jul-26 00:29S 24°10' W 046°13'0 0.0
2016-Jul-25 23:32S 24°10' W 046°13'0 0.0
2016-Jul-25 22:32S 24°10' W 046°13'0 0.0
2016-Jul-25 21:20S 24°10' W 046°13'0 0.0
2016-Jul-25 20:32S 24°10' W 046°13'0 0.0
2016-Jul-25 19:29S 24°10' W 046°13'0 0.0
2016-Jul-25 18:29S 24°10' W 046°13'0 0.0
2016-Jul-25 17:29S 24°10' W 046°13'0 0.0
2016-Jul-25 16:32S 24°10' W 046°13'0 0.0
2016-Jul-25 15:32S 24°10' W 046°13'0 0.0
2016-Jul-25 14:32S 24°10' W 046°13'0 0.0
2016-Jul-25 13:32S 24°10' W 046°13'0 0.0
2016-Jul-25 12:32S 24°10' W 046°13'0 0.0
2016-Jul-25 11:26S 24°10' W 046°13'0 0.0
2016-Jul-25 10:26S 24°10' W 046°13'0 0.0
2016-Jul-25 09:29S 24°10' W 046°13'0 0.0
2016-Jul-25 08:32S 24°10' W 046°13'0 0.0
2016-Jul-25 07:32S 24°10' W 046°13'0 0.0
2016-Jul-25 06:26S 24°10' W 046°13'0 0.0
2016-Jul-25 05:29S 24°10' W 046°13'0 0.0
2016-Jul-25 04:26S 24°10' W 046°13'0 0.0
2016-Jul-25 03:26S 24°10' W 046°13'0 0.0
2016-Jul-25 02:17S 24°10' W 046°13'0 0.0
2016-Jul-25 01:26S 24°10' W 046°13'0 0.0
2016-Jul-25 00:32S 24°10' W 046°13'0 0.0
2016-Jul-24 23:23S 24°10' W 046°13'0 0.0
2016-Jul-24 22:32S 24°10' W 046°13'0 0.0
2016-Jul-24 21:32S 24°10' W 046°13'0 0.0
2016-Jul-24 19:26S 24°10' W 046°13'0 0.0
2016-Jul-24 18:26S 24°10' W 046°13'0 0.0
2016-Jul-24 17:32S 24°09' W 046°13'0 0.0
2016-Jul-24 16:32S 24°09' W 046°13'0 0.0
2016-Jul-24 15:32S 24°09' W 046°13'0 0.0
2016-Jul-24 14:32S 24°09' W 046°13'0 0.0
2016-Jul-24 13:32S 24°09' W 046°13'0 0.0
2016-Jul-24 12:23S 24°09' W 046°13'0 0.0
2016-Jul-24 11:32S 24°09' W 046°13'0 0.0
2016-Jul-24 10:32S 24°09' W 046°13'0 0.0
2016-Jul-24 09:32S 24°09' W 046°13'0 0.0
2016-Jul-24 08:32S 24°09' W 046°13'0 0.0
2016-Jul-24 07:32S 24°09' W 046°13'0 0.0
2016-Jul-24 06:32S 24°09' W 046°13'0 0.0
2016-Jul-24 05:32S 24°09' W 046°13'0 0.0
2016-Jul-24 04:32S 24°09' W 046°13'0 0.0
2016-Jul-24 03:32S 24°09' W 046°13'0 0.0
2016-Jul-24 02:26S 24°10' W 046°13'0 0.0
2016-Jul-24 01:32S 24°10' W 046°13'0 0.0
2016-Jul-24 00:32S 24°10' W 046°13'0 0.0
2016-Jul-23 23:32S 24°10' W 046°13'0 0.0
2016-Jul-23 22:32S 24°10' W 046°13'0 0.0
2016-Jul-23 21:29S 24°09' W 046°13'0 0.0
2016-Jul-23 20:26S 24°09' W 046°13'0 0.0
2016-Jul-23 19:32S 24°10' W 046°13'0 0.0
2016-Jul-23 18:32S 24°10' W 046°13'0 0.1
2016-Jul-23 17:32S 24°09' W 046°13'0 0.0
2016-Jul-23 16:32S 24°09' W 046°13'0 0.0
2016-Jul-23 15:26S 24°09' W 046°13'0 0.0
2016-Jul-23 14:32S 24°09' W 046°13'0 0.0
2016-Jul-23 13:32S 24°09' W 046°13'0 0.0
2016-Jul-23 12:14S 24°09' W 046°13'0 0.0
2016-Jul-23 11:29S 24°09' W 046°13'0 0.0
2016-Jul-23 10:32S 24°09' W 046°13'0 0.0
2016-Jul-23 09:20S 24°09' W 046°13'0 0.0
2016-Jul-23 08:32S 24°09' W 046°13'0 0.0
2016-Jul-23 07:32S 24°09' W 046°13'0 0.0
2016-Jul-23 06:32S 24°09' W 046°13'0 0.0
2016-Jul-23 04:26S 24°09' W 046°13'0 0.0
2016-Jul-23 03:26S 24°09' W 046°13'0 0.0
2016-Jul-23 02:26S 24°09' W 046°13'0 0.0
2016-Jul-23 01:32S 24°09' W 046°13'0 0.0
2016-Jul-23 00:32S 24°09' W 046°13'0 0.0
2016-Jul-22 23:29S 24°09' W 046°13'0 0.0
2016-Jul-22 22:32S 24°09' W 046°13'  

Dump ship's entire track history